createdAt,value
2019-03-15T00:00:08.071Z,4.03
2019-03-15T00:01:18.779Z,4.03
2019-03-15T00:02:29.486Z,4.04
2019-03-15T00:03:40.683Z,4.03
2019-03-15T00:04:51.377Z,4.05
2019-03-15T00:06:02.081Z,4.07
2019-03-15T00:07:13.272Z,4.08
2019-03-15T00:08:24.627Z,4.09
2019-03-15T00:09:35.338Z,4.08
2019-03-15T00:10:46.644Z,4.08
2019-03-15T00:11:57.860Z,4.07
2019-03-15T00:13:08.561Z,4.07
2019-03-15T00:14:19.255Z,4.07
2019-03-15T00:15:30.157Z,4.06
2019-03-15T00:16:41.143Z,4.04
2019-03-15T00:17:51.843Z,4.04
2019-03-15T00:19:02.542Z,4.03
2019-03-15T00:20:13.243Z,4.03
2019-03-15T00:21:23.946Z,4.04
2019-03-15T00:22:34.679Z,4.06
2019-03-15T00:23:45.347Z,4.09
2019-03-15T00:24:56.059Z,4.13
2019-03-15T00:26:06.752Z,4.16
2019-03-15T00:27:17.935Z,4.20
2019-03-15T00:28:28.629Z,4.24
2019-03-15T00:29:39.327Z,4.27
2019-03-15T00:30:50.026Z,4.30
2019-03-15T00:32:00.736Z,4.33
2019-03-15T00:33:11.424Z,4.36
2019-03-15T00:34:22.125Z,4.38
2019-03-15T00:35:32.837Z,4.42
2019-03-15T00:36:43.545Z,4.44
2019-03-15T00:37:54.235Z,4.47
2019-03-15T00:39:04.929Z,4.49
2019-03-15T00:40:15.675Z,4.52
2019-03-15T00:41:26.832Z,4.55
2019-03-15T00:42:37.535Z,4.57
2019-03-15T00:43:49.896Z,4.58
2019-03-15T00:45:00.425Z,4.62
2019-03-15T00:46:11.117Z,4.64
2019-03-15T00:47:21.834Z,4.65
2019-03-15T00:48:32.542Z,4.66
2019-03-15T00:49:43.245Z,4.67
2019-03-15T00:50:53.949Z,4.66
2019-03-15T00:52:04.662Z,4.66
2019-03-15T00:53:15.357Z,4.66
2019-03-15T00:54:26.063Z,4.64
2019-03-15T00:55:36.761Z,4.63
2019-03-15T00:56:47.470Z,4.61
2019-03-15T00:57:58.661Z,4.58
2019-03-15T00:59:09.360Z,4.59
2019-03-15T01:00:20.067Z,4.58
2019-03-15T01:01:30.771Z,4.57
2019-03-15T01:02:44.213Z,4.55
2019-03-15T01:03:52.679Z,4.53
2019-03-15T01:05:04.379Z,4.51
2019-03-15T01:06:15.073Z,4.53
2019-03-15T01:07:25.779Z,4.55
2019-03-15T01:08:36.981Z,4.56
2019-03-15T01:09:47.685Z,4.60
2019-03-15T01:10:58.400Z,4.60
2019-03-15T01:12:09.107Z,4.59
2019-03-15T01:13:19.814Z,4.58
2019-03-15T01:14:30.989Z,4.58
2019-03-15T01:15:42.190Z,4.58
2019-03-15T01:16:52.910Z,4.58
2019-03-15T01:18:03.614Z,4.60
2019-03-15T01:19:14.807Z,4.61
2019-03-15T01:20:25.527Z,4.63
2019-03-15T01:21:36.236Z,4.65
2019-03-15T01:22:46.938Z,4.69
2019-03-15T01:23:57.644Z,4.73
2019-03-15T01:25:08.341Z,4.76
2019-03-15T01:26:19.158Z,4.79
2019-03-15T01:27:29.754Z,4.81
2019-03-15T01:28:40.950Z,4.83
2019-03-15T01:29:51.673Z,4.86
2019-03-15T01:31:02.377Z,4.88
2019-03-15T01:32:13.084Z,4.91
2019-03-15T01:33:23.793Z,4.91
2019-03-15T01:34:34.651Z,4.93
2019-03-15T01:35:45.860Z,4.92
2019-03-15T01:36:57.057Z,4.91
2019-03-15T01:38:07.768Z,4.90
2019-03-15T01:39:19.460Z,4.87
2019-03-15T01:40:30.159Z,4.84
2019-03-15T01:41:40.869Z,4.81
2019-03-15T01:42:52.083Z,4.77
2019-03-15T01:44:03.498Z,4.73
2019-03-15T01:45:13.488Z,4.70
2019-03-15T01:46:24.183Z,4.68
2019-03-15T01:47:35.400Z,4.67
2019-03-15T01:48:46.101Z,4.65
2019-03-15T01:49:57.303Z,4.63
2019-03-15T01:51:08.005Z,4.62
2019-03-15T01:52:18.709Z,4.60
2019-03-15T01:53:29.949Z,4.59
2019-03-15T01:54:40.610Z,4.57
2019-03-15T01:55:51.308Z,4.55
2019-03-15T01:57:02.003Z,4.53
2019-03-15T01:58:13.198Z,4.51
2019-03-15T01:59:24.385Z,4.49
2019-03-15T02:00:35.153Z,4.48
2019-03-15T02:01:46.271Z,4.47
2019-03-15T02:02:56.971Z,4.47
2019-03-15T02:04:08.168Z,4.46
2019-03-15T02:05:18.874Z,4.47
2019-03-15T02:06:30.074Z,4.48
2019-03-15T02:07:40.772Z,4.48
2019-03-15T02:08:52.502Z,4.49
2019-03-15T02:10:02.182Z,4.50
2019-03-15T02:11:12.891Z,4.53
2019-03-15T02:12:23.598Z,4.55
2019-03-15T02:13:34.801Z,4.58
2019-03-15T02:14:45.526Z,4.60
2019-03-15T02:15:56.217Z,4.64
2019-03-15T02:17:06.925Z,4.65
2019-03-15T02:18:18.718Z,4.68
2019-03-15T02:19:28.328Z,4.69
2019-03-15T02:20:39.522Z,4.71
2019-03-15T02:21:50.221Z,4.72
2019-03-15T02:23:01.413Z,4.74
2019-03-15T02:24:12.113Z,4.76
2019-03-15T02:25:22.819Z,4.77
2019-03-15T02:26:34.041Z,4.79
2019-03-15T02:27:44.747Z,4.80
2019-03-15T02:28:55.452Z,4.82
2019-03-15T02:30:06.160Z,4.85
2019-03-15T02:31:17.372Z,4.86
2019-03-15T02:32:28.083Z,4.88
2019-03-15T02:33:39.299Z,4.90
2019-03-15T02:34:50.201Z,4.92
2019-03-15T02:36:01.210Z,4.93
2019-03-15T02:37:11.910Z,4.95
2019-03-15T02:38:22.626Z,4.95
2019-03-15T02:39:33.836Z,4.95
2019-03-15T02:40:45.032Z,4.96
2019-03-15T02:41:55.738Z,4.97
2019-03-15T02:43:06.436Z,4.98
2019-03-15T02:44:17.145Z,4.99
2019-03-15T02:45:28.336Z,4.98
2019-03-15T02:46:39.058Z,4.98
2019-03-15T02:47:49.773Z,4.97
2019-03-15T02:49:00.637Z,4.97
2019-03-15T02:50:11.348Z,4.97
2019-03-15T02:51:23.358Z,4.96
2019-03-15T02:52:33.238Z,4.96
2019-03-15T02:53:43.938Z,4.95
2019-03-15T02:54:55.147Z,4.95
2019-03-15T02:56:05.851Z,4.93
2019-03-15T02:57:16.543Z,4.93
2019-03-15T02:58:27.954Z,4.93
2019-03-15T02:59:37.986Z,4.93
2019-03-15T03:00:49.186Z,4.93
2019-03-15T03:02:00.690Z,4.92
2019-03-15T03:03:11.082Z,4.93
2019-03-15T03:04:21.787Z,4.93
2019-03-15T03:05:33.605Z,4.93
2019-03-15T03:06:43.207Z,4.94
2019-03-15T03:07:53.941Z,4.92
2019-03-15T03:09:04.623Z,4.92
2019-03-15T03:10:15.334Z,4.94
2019-03-15T03:11:26.604Z,4.92
2019-03-15T03:12:37.321Z,4.93
2019-03-15T03:13:48.018Z,4.91
2019-03-15T03:14:59.242Z,4.91
2019-03-15T03:16:09.927Z,4.91
2019-03-15T03:17:20.637Z,4.91
2019-03-15T03:18:31.335Z,4.91
2019-03-15T03:19:42.054Z,4.89
2019-03-15T03:20:52.759Z,4.90
2019-03-15T03:22:03.476Z,4.91
2019-03-15T03:23:14.697Z,4.91
2019-03-15T03:24:25.378Z,4.91
2019-03-15T03:25:36.088Z,4.91
2019-03-15T03:26:46.798Z,4.91
2019-03-15T03:27:58.011Z,4.91
2019-03-15T03:29:09.202Z,4.92
2019-03-15T03:30:19.910Z,4.93
2019-03-15T03:31:30.635Z,4.94
2019-03-15T03:32:44.157Z,4.95
2019-03-15T03:33:53.042Z,4.95
2019-03-15T03:35:03.797Z,4.96
2019-03-15T03:36:14.467Z,4.97
2019-03-15T03:37:25.655Z,4.97
2019-03-15T03:38:36.354Z,4.98
2019-03-15T03:39:47.055Z,4.97
2019-03-15T03:40:57.785Z,4.98
2019-03-15T03:42:08.478Z,4.98
2019-03-15T03:43:19.180Z,4.98
2019-03-15T03:44:29.881Z,4.97
2019-03-15T03:45:40.601Z,4.98
2019-03-15T03:46:52.024Z,4.97
2019-03-15T03:48:02.024Z,4.96
2019-03-15T03:49:13.227Z,4.95
2019-03-15T03:50:24.418Z,4.95
2019-03-15T03:51:35.623Z,4.95
2019-03-15T03:52:46.824Z,4.93
2019-03-15T03:53:57.530Z,4.94
2019-03-15T03:55:08.231Z,4.91
2019-03-15T03:56:19.032Z,4.90
2019-03-15T03:57:29.667Z,4.89
2019-03-15T03:58:40.368Z,4.87
2019-03-15T03:59:51.071Z,4.86
2019-03-15T04:01:01.790Z,4.86
2019-03-15T04:02:12.498Z,4.86
2019-03-15T04:03:23.195Z,4.86
2019-03-15T04:04:34.387Z,4.84
2019-03-15T04:05:45.090Z,4.81
2019-03-15T04:06:55.799Z,4.78
2019-03-15T04:08:07.003Z,4.73
2019-03-15T04:09:18.199Z,4.69
2019-03-15T04:10:28.904Z,4.67
2019-03-15T04:11:39.619Z,4.66
2019-03-15T04:12:50.319Z,4.64
2019-03-15T04:14:01.570Z,4.64
2019-03-15T04:15:12.235Z,4.66
2019-03-15T04:16:23.458Z,4.69
2019-03-15T04:17:34.169Z,4.70
2019-03-15T04:18:44.870Z,4.72
2019-03-15T04:19:55.578Z,4.72
2019-03-15T04:21:06.298Z,4.74
2019-03-15T04:22:17.009Z,4.76
2019-03-15T04:23:28.216Z,4.77
2019-03-15T04:24:38.909Z,4.76
2019-03-15T04:25:49.607Z,4.75
2019-03-15T04:27:00.370Z,4.74
2019-03-15T04:28:11.072Z,4.72
2019-03-15T04:29:21.789Z,4.70
2019-03-15T04:30:32.624Z,4.68
2019-03-15T04:31:43.342Z,4.67
2019-03-15T04:32:54.046Z,4.66
2019-03-15T04:34:04.749Z,4.68
2019-03-15T04:35:15.454Z,4.69
2019-03-15T04:36:26.164Z,4.71
2019-03-15T04:37:36.880Z,4.71
2019-03-15T04:38:47.579Z,4.72
2019-03-15T04:39:58.285Z,4.72
2019-03-15T04:41:09.490Z,4.73
2019-03-15T04:42:20.204Z,4.76
2019-03-15T04:43:30.906Z,4.78
2019-03-15T04:44:42.096Z,4.79
2019-03-15T04:45:53.298Z,4.81
2019-03-15T04:47:04.015Z,4.83
2019-03-15T04:48:14.723Z,4.87
2019-03-15T04:49:25.428Z,4.89
2019-03-15T04:50:36.145Z,4.92
2019-03-15T04:51:46.849Z,4.94
2019-03-15T04:52:57.550Z,4.96
2019-03-15T04:54:08.251Z,4.97
2019-03-15T04:55:18.953Z,4.98
2019-03-15T04:56:30.657Z,5.01
2019-03-15T04:57:41.368Z,5.02
2019-03-15T04:58:52.075Z,5.04
2019-03-15T05:00:02.776Z,5.05
2019-03-15T05:01:13.495Z,5.05
2019-03-15T05:02:24.195Z,5.06
2019-03-15T05:03:34.916Z,5.06
2019-03-15T05:04:45.619Z,5.04
2019-03-15T05:06:03.307Z,5.05
2019-03-15T05:07:07.040Z,5.04
2019-03-15T05:08:18.253Z,5.03
2019-03-15T05:09:29.102Z,5.02
2019-03-15T05:10:39.748Z,5.01
2019-03-15T05:11:50.952Z,4.99
2019-03-15T05:13:01.652Z,4.99
2019-03-15T05:14:12.367Z,4.98
2019-03-15T05:15:23.072Z,4.98
2019-03-15T05:16:33.783Z,4.98
2019-03-15T05:17:44.669Z,4.98
2019-03-15T05:18:55.377Z,4.98
2019-03-15T05:20:06.091Z,4.98
2019-03-15T05:21:17.288Z,4.99
2019-03-15T05:22:27.995Z,4.99
2019-03-15T05:23:38.717Z,4.98
2019-03-15T05:24:49.917Z,4.99
2019-03-15T05:26:00.618Z,5.00
2019-03-15T05:27:11.327Z,5.01
2019-03-15T05:28:22.027Z,5.03
2019-03-15T05:29:32.740Z,5.03
2019-03-15T05:30:43.441Z,5.03
2019-03-15T05:31:54.156Z,5.04
2019-03-15T05:33:04.865Z,5.05
2019-03-15T05:34:15.576Z,5.08
2019-03-15T05:35:26.273Z,5.09
2019-03-15T05:36:36.982Z,5.11
2019-03-15T05:37:47.684Z,5.12
2019-03-15T05:38:58.402Z,5.14
2019-03-15T05:40:09.119Z,5.15
2019-03-15T05:41:20.326Z,5.18
2019-03-15T05:42:31.035Z,5.18
2019-03-15T05:43:42.237Z,5.20
2019-03-15T05:44:52.946Z,5.21
2019-03-15T05:46:03.661Z,5.21
2019-03-15T05:47:14.871Z,5.22
2019-03-15T05:48:26.073Z,5.23
2019-03-15T05:49:37.284Z,5.25
2019-03-15T05:50:47.987Z,5.26
2019-03-15T05:51:58.700Z,5.28
2019-03-15T05:53:09.427Z,5.30
2019-03-15T05:54:20.159Z,5.31
2019-03-15T05:55:30.860Z,5.33
2019-03-15T05:56:41.573Z,5.34
2019-03-15T05:57:52.770Z,5.37
2019-03-15T05:59:03.485Z,5.38
2019-03-15T06:00:14.247Z,5.39
2019-03-15T06:01:24.909Z,5.40
2019-03-15T06:02:35.620Z,5.42
2019-03-15T06:03:48.916Z,5.44
2019-03-15T06:04:57.062Z,5.46
2019-03-15T06:06:07.775Z,5.47
2019-03-15T06:07:19.974Z,5.48
2019-03-15T06:08:30.689Z,5.50
2019-03-15T06:09:41.396Z,5.53
2019-03-15T06:10:54.727Z,5.56
2019-03-15T06:12:02.835Z,5.59
2019-03-15T06:13:13.546Z,5.63
2019-03-15T06:14:24.338Z,5.65
2019-03-15T06:15:35.473Z,5.68
2019-03-15T06:16:46.187Z,5.70
2019-03-15T06:17:56.895Z,5.72
2019-03-15T06:19:07.618Z,5.73
2019-03-15T06:20:18.341Z,5.76
2019-03-15T06:21:29.059Z,5.79
2019-03-15T06:22:39.775Z,5.81
2019-03-15T06:23:50.633Z,5.85
2019-03-15T06:25:01.836Z,5.87
2019-03-15T06:26:12.753Z,5.87
2019-03-15T06:27:24.136Z,5.89
2019-03-15T06:28:34.694Z,5.91
2019-03-15T06:29:45.402Z,5.93
2019-03-15T06:30:56.626Z,5.94
2019-03-15T06:32:07.344Z,5.97
2019-03-15T06:33:19.551Z,5.99
2019-03-15T06:34:30.274Z,6.01
2019-03-15T06:35:41.489Z,6.05
2019-03-15T06:36:52.203Z,6.10
2019-03-15T06:38:02.929Z,6.13
2019-03-15T06:39:13.642Z,6.17
2019-03-15T06:40:24.358Z,6.21
2019-03-15T06:41:35.085Z,6.26
2019-03-15T06:42:45.981Z,6.29
2019-03-15T06:43:56.702Z,6.31
2019-03-15T06:45:07.419Z,6.35
2019-03-15T06:46:18.161Z,6.38
2019-03-15T06:47:30.060Z,6.41
2019-03-15T06:48:39.605Z,6.44
2019-03-15T06:49:50.333Z,6.49
2019-03-15T06:51:01.062Z,6.53
2019-03-15T06:52:11.792Z,6.56
2019-03-15T06:53:22.526Z,6.60
2019-03-15T06:54:33.256Z,6.62
2019-03-15T06:55:43.987Z,6.64
2019-03-15T06:56:54.720Z,6.66
2019-03-15T06:58:05.459Z,6.68
2019-03-15T06:59:16.198Z,6.71
2019-03-15T07:00:27.435Z,6.75
2019-03-15T07:01:38.168Z,6.78
2019-03-15T07:02:49.415Z,6.79
2019-03-15T07:04:00.642Z,6.81
2019-03-15T07:05:12.369Z,6.82
2019-03-15T07:06:22.109Z,6.84
2019-03-15T07:07:32.852Z,6.87
2019-03-15T07:08:43.588Z,6.91
2019-03-15T07:09:54.325Z,6.94
2019-03-15T07:11:05.060Z,6.96
2019-03-15T07:12:15.805Z,6.99
2019-03-15T07:13:26.544Z,7.03
2019-03-15T07:14:37.283Z,7.04
2019-03-15T07:15:48.028Z,7.06
2019-03-15T07:16:58.777Z,7.06
2019-03-15T07:18:09.518Z,7.06
2019-03-15T07:19:27.413Z,7.06
2019-03-15T07:20:32.004Z,7.05
2019-03-15T07:21:42.748Z,7.04
2019-03-15T07:22:53.497Z,7.04
2019-03-15T07:24:04.236Z,7.04
2019-03-15T07:25:14.982Z,7.04
2019-03-15T07:26:25.732Z,7.04
2019-03-15T07:27:36.636Z,7.05
2019-03-15T07:28:47.386Z,7.07
2019-03-15T07:29:59.973Z,7.09
2019-03-15T07:31:08.872Z,7.11
2019-03-15T07:32:19.626Z,7.15
2019-03-15T07:33:30.869Z,7.18
2019-03-15T07:34:41.739Z,7.20
2019-03-15T07:35:52.372Z,7.23
2019-03-15T07:37:03.131Z,7.27
2019-03-15T07:38:13.879Z,7.30
2019-03-15T07:39:26.546Z,7.33
2019-03-15T07:40:35.372Z,7.32
2019-03-15T07:41:47.117Z,7.30
2019-03-15T07:43:02.047Z,7.30
2019-03-15T07:44:09.124Z,7.30
2019-03-15T07:45:19.886Z,7.31
2019-03-15T07:46:30.637Z,7.33
2019-03-15T07:47:41.403Z,7.33
2019-03-15T07:48:52.157Z,7.33
2019-03-15T07:50:03.420Z,7.31
2019-03-15T07:51:14.169Z,7.28
2019-03-15T07:52:24.929Z,7.24
2019-03-15T07:53:35.745Z,7.20
2019-03-15T07:54:46.433Z,7.16
2019-03-15T07:55:57.180Z,7.14
2019-03-15T07:57:07.933Z,7.13
2019-03-15T07:58:18.694Z,7.09
2019-03-15T07:59:29.444Z,7.07
2019-03-15T08:00:40.204Z,7.10
2019-03-15T08:01:52.725Z,7.17
2019-03-15T08:03:01.706Z,7.24
2019-03-15T08:04:17.048Z,7.32
2019-03-15T08:05:24.218Z,7.40
2019-03-15T08:06:36.422Z,7.48
2019-03-15T08:07:46.219Z,7.57
2019-03-15T08:08:56.971Z,7.65
2019-03-15T08:10:07.737Z,7.71
2019-03-15T08:11:18.660Z,7.74
2019-03-15T08:12:29.404Z,7.76
2019-03-15T08:13:40.161Z,7.80
2019-03-15T08:14:50.918Z,7.81
2019-03-15T08:16:01.689Z,7.79
2019-03-15T08:17:12.447Z,7.73
2019-03-15T08:18:23.215Z,7.68
2019-03-15T08:19:33.973Z,7.66
2019-03-15T08:20:44.724Z,7.64
2019-03-15T08:21:56.803Z,7.66
2019-03-15T08:23:08.630Z,7.68
2019-03-15T08:24:18.027Z,7.69
2019-03-15T08:25:29.398Z,7.70
2019-03-15T08:26:40.158Z,7.69
2019-03-15T08:27:50.997Z,7.69
2019-03-15T08:29:01.766Z,7.66
2019-03-15T08:30:12.530Z,7.62
2019-03-15T08:31:23.786Z,7.59
2019-03-15T08:32:34.552Z,7.58
2019-03-15T08:33:45.322Z,7.56
2019-03-15T08:34:56.628Z,7.48
2019-03-15T08:36:07.385Z,7.42
2019-03-15T08:37:18.159Z,7.36
2019-03-15T08:38:29.414Z,7.32
2019-03-15T08:39:40.195Z,7.28
2019-03-15T08:40:50.949Z,7.28
2019-03-15T08:42:02.195Z,7.29
2019-03-15T08:43:12.954Z,7.31
2019-03-15T08:44:23.723Z,7.33
2019-03-15T08:45:34.718Z,7.33
2019-03-15T08:46:45.423Z,7.34
2019-03-15T08:47:56.169Z,7.35
2019-03-15T08:49:07.583Z,7.34
2019-03-15T08:50:18.341Z,7.31
2019-03-15T08:51:29.096Z,7.30
2019-03-15T08:52:42.144Z,7.30
2019-03-15T08:53:51.616Z,7.34
2019-03-15T08:55:05.511Z,7.38
2019-03-15T08:56:14.738Z,7.42
2019-03-15T08:57:25.390Z,7.44
2019-03-15T08:58:36.155Z,7.43
2019-03-15T08:59:54.202Z,7.42
2019-03-15T09:00:58.680Z,7.46
2019-03-15T09:02:09.439Z,7.50
2019-03-15T09:03:28.040Z,7.57
2019-03-15T09:04:31.473Z,7.67
2019-03-15T09:05:42.745Z,7.79
2019-03-15T09:06:53.983Z,7.86
2019-03-15T09:08:04.749Z,7.91
2019-03-15T09:09:15.504Z,7.95
2019-03-15T09:10:26.772Z,8.00
2019-03-15T09:11:38.029Z,8.03
2019-03-15T09:12:48.803Z,8.09
2019-03-15T09:14:00.063Z,8.18
2019-03-15T09:15:11.423Z,8.22
2019-03-15T09:17:33.986Z,8.34
2019-03-15T09:18:45.159Z,8.35
2019-03-15T09:19:56.945Z,8.39
2019-03-15T09:21:07.705Z,8.42
2019-03-15T09:22:18.626Z,8.46
2019-03-15T09:23:29.897Z,8.48
2019-03-15T09:24:41.170Z,8.52
2019-03-15T09:25:52.448Z,8.59
2019-03-15T09:27:03.736Z,8.70
2019-03-15T09:28:15.014Z,8.82
2019-03-15T09:29:25.791Z,8.99
2019-03-15T09:30:36.581Z,9.14
2019-03-15T09:31:48.513Z,9.28
2019-03-15T09:32:59.151Z,9.34
2019-03-15T09:34:09.974Z,9.34
2019-03-15T09:35:20.794Z,9.40
2019-03-15T09:36:33.961Z,9.44
2019-03-15T09:37:42.842Z,9.49
2019-03-15T09:38:54.130Z,9.58
2019-03-15T09:40:05.423Z,9.58
2019-03-15T09:41:30.482Z,9.48
2019-03-15T09:42:27.014Z,9.37
2019-03-15T09:43:38.299Z,9.24
2019-03-15T09:44:49.584Z,9.11
2019-03-15T09:46:00.881Z,8.98
2019-03-15T09:47:12.171Z,8.87
2019-03-15T09:48:23.459Z,8.80
2019-03-15T09:49:34.739Z,8.74
2019-03-15T09:50:51.522Z,8.75
2019-03-15T09:51:56.837Z,8.80
2019-03-15T09:53:08.137Z,8.87
2019-03-15T09:54:19.412Z,9.00
2019-03-15T09:55:33.356Z,9.11
2019-03-15T09:56:42.014Z,9.20
2019-03-15T09:57:52.785Z,9.21
2019-03-15T09:59:04.084Z,9.24
2019-03-15T10:00:14.868Z,9.32
2019-03-15T10:01:34.694Z,9.42
2019-03-15T10:02:37.467Z,9.48
2019-03-15T10:03:48.764Z,9.54
2019-03-15T10:05:10.077Z,9.62
2019-03-15T10:06:15.704Z,9.67
2019-03-15T10:07:37.400Z,9.77
2019-03-15T10:08:34.972Z,9.87
2019-03-15T10:09:46.455Z,9.97
2019-03-15T10:10:57.090Z,10.04
2019-03-15T10:12:08.401Z,10.04
2019-03-15T10:13:19.710Z,10.02
2019-03-15T10:14:31.016Z,10.03
2019-03-15T10:15:42.367Z,10.14
2019-03-15T10:16:54.625Z,10.34
2019-03-15T10:18:05.943Z,10.46
2019-03-15T10:19:17.292Z,10.57
2019-03-15T10:20:28.333Z,10.61
2019-03-15T10:21:39.660Z,10.62
2019-03-15T10:23:04.609Z,10.62
2019-03-15T10:24:02.320Z,10.56
2019-03-15T10:25:13.642Z,10.53
2019-03-15T10:26:24.959Z,10.67
2019-03-15T10:27:35.783Z,10.80
2019-03-15T10:28:47.099Z,10.81
2019-03-15T10:29:58.432Z,10.89
2019-03-15T10:31:09.750Z,10.94
2019-03-15T10:32:21.089Z,11.01
2019-03-15T10:33:32.443Z,11.09
2019-03-15T10:34:43.771Z,11.20
2019-03-15T10:35:55.109Z,11.28
2019-03-15T10:37:06.558Z,11.22
2019-03-15T10:38:17.797Z,11.13
2019-03-15T10:39:29.134Z,11.07
2019-03-15T10:40:40.628Z,11.02
2019-03-15T10:41:51.952Z,10.97
2019-03-15T10:43:03.299Z,10.86
2019-03-15T10:44:14.649Z,10.76
2019-03-15T10:45:25.991Z,10.80
2019-03-15T10:46:37.346Z,10.94
2019-03-15T10:47:48.698Z,10.92
2019-03-15T10:49:00.041Z,10.68
2019-03-15T10:50:11.382Z,10.45
2019-03-15T10:51:22.719Z,10.26
2019-03-15T10:52:34.112Z,10.14
2019-03-15T10:53:45.385Z,10.13
2019-03-15T10:54:56.711Z,10.19
2019-03-15T10:56:08.090Z,10.27
2019-03-15T10:57:19.424Z,10.27
2019-03-15T10:58:30.755Z,10.19
2019-03-15T10:59:42.081Z,10.14
2019-03-15T11:00:53.399Z,10.19
2019-03-15T11:02:04.738Z,10.31
2019-03-15T11:03:16.072Z,10.38
2019-03-15T11:04:27.399Z,10.33
2019-03-15T11:05:38.726Z,10.26
2019-03-15T11:06:50.053Z,10.14
2019-03-15T11:08:01.379Z,10.08
2019-03-15T11:09:12.695Z,10.06
2019-03-15T11:10:24.022Z,10.11
2019-03-15T11:11:35.338Z,10.19
2019-03-15T11:12:46.679Z,10.29
2019-03-15T11:13:58.023Z,10.42
2019-03-15T11:15:09.342Z,10.51
2019-03-15T11:16:20.667Z,10.57
2019-03-15T11:17:32.003Z,10.58
2019-03-15T11:18:43.649Z,10.53
2019-03-15T11:19:54.969Z,10.47
2019-03-15T11:21:06.303Z,10.39
2019-03-15T11:22:17.635Z,10.33
2019-03-15T11:23:28.997Z,10.32
2019-03-15T11:24:43.502Z,10.31
2019-03-15T11:25:51.601Z,10.31
2019-03-15T11:28:14.329Z,10.44
2019-03-15T11:29:25.669Z,10.52
2019-03-15T11:30:36.994Z,10.54
2019-03-15T11:31:49.320Z,10.54
2019-03-15T11:33:01.650Z,10.52
2019-03-15T11:34:12.987Z,10.47
2019-03-15T11:35:24.315Z,10.43
2019-03-15T11:36:35.663Z,10.35
2019-03-15T11:37:46.989Z,10.33
2019-03-15T11:38:58.305Z,10.35
2019-03-15T11:40:09.624Z,10.39
2019-03-15T11:41:21.946Z,10.54
2019-03-15T11:42:32.778Z,10.71
2019-03-15T11:43:45.104Z,10.91
2019-03-15T11:44:56.441Z,11.10
2019-03-15T11:46:07.765Z,11.23
2019-03-15T11:47:19.424Z,11.33
2019-03-15T11:48:29.980Z,11.38
2019-03-15T11:49:41.290Z,11.42
2019-03-15T11:50:52.649Z,11.43
2019-03-15T11:52:04.004Z,11.38
2019-03-15T11:53:18.706Z,11.36
2019-03-15T11:54:26.673Z,11.36
2019-03-15T11:55:38.012Z,11.32
2019-03-15T11:56:50.835Z,11.29
2019-03-15T11:58:00.687Z,11.30
2019-03-15T11:59:12.018Z,11.40
2019-03-15T12:00:23.357Z,11.61
2019-03-15T12:01:37.640Z,11.80
2019-03-15T12:02:46.037Z,11.98
2019-03-15T12:03:57.378Z,12.20
2019-03-15T12:05:08.739Z,12.40
2019-03-15T12:06:20.098Z,12.57
2019-03-15T12:07:31.441Z,12.71
2019-03-15T12:08:42.801Z,12.77
2019-03-15T12:09:54.164Z,12.80
2019-03-15T12:11:05.506Z,12.79
2019-03-15T12:12:16.367Z,12.84
2019-03-15T12:13:27.727Z,12.95
2019-03-15T12:14:41.115Z,12.93
2019-03-15T12:15:49.968Z,12.89
2019-03-15T12:17:01.844Z,12.83
2019-03-15T12:18:13.219Z,12.76
2019-03-15T12:19:24.590Z,12.79
2019-03-15T12:20:35.969Z,12.93
2019-03-15T12:21:47.406Z,13.08
2019-03-15T12:22:58.212Z,13.24
2019-03-15T12:24:09.590Z,13.49
2019-03-15T12:25:20.654Z,13.64
2019-03-15T12:26:40.207Z,13.77
2019-03-15T12:27:43.432Z,13.95
2019-03-15T12:28:54.811Z,14.07
2019-03-15T12:30:06.207Z,14.10
2019-03-15T12:31:17.610Z,14.19
2019-03-15T12:32:28.518Z,14.32
2019-03-15T12:33:39.906Z,14.48
2019-03-15T12:34:50.810Z,14.63
2019-03-15T12:36:03.595Z,14.79
2019-03-15T12:37:14.633Z,14.92
2019-03-15T12:38:25.549Z,15.02
2019-03-15T12:39:37.957Z,15.13
2019-03-15T12:40:49.365Z,15.18
2019-03-15T12:42:00.773Z,15.40
2019-03-15T12:43:12.196Z,15.62
2019-03-15T12:44:23.622Z,15.84
2019-03-15T12:45:36.054Z,16.02
2019-03-15T12:46:47.477Z,16.06
2019-03-15T12:47:58.910Z,15.93
2019-03-15T12:49:10.335Z,15.86
2019-03-15T12:50:21.784Z,15.84
2019-03-15T12:51:33.248Z,15.75
2019-03-15T12:52:48.742Z,15.70
2019-03-15T12:53:56.086Z,15.67
2019-03-15T12:55:07.520Z,15.70
2019-03-15T12:56:18.951Z,15.78
2019-03-15T12:57:31.413Z,15.89
2019-03-15T12:58:42.849Z,16.08
2019-03-15T12:59:54.293Z,16.20
2019-03-15T13:01:05.738Z,16.29
2019-03-15T13:02:20.087Z,16.42
2019-03-15T13:03:28.637Z,16.57
2019-03-15T13:04:40.092Z,16.70
2019-03-15T13:05:51.552Z,16.70
2019-03-15T13:07:03.027Z,16.66
2019-03-15T13:08:14.492Z,16.58
2019-03-15T13:09:25.955Z,16.56
2019-03-15T13:10:37.426Z,16.54
2019-03-15T13:11:48.892Z,16.46
2019-03-15T13:13:00.344Z,16.42
2019-03-15T13:14:11.817Z,16.36
2019-03-15T13:15:23.281Z,16.23
2019-03-15T13:16:34.759Z,16.14
2019-03-15T13:17:46.282Z,16.11
2019-03-15T13:18:57.655Z,15.99
2019-03-15T13:20:09.111Z,15.91
2019-03-15T13:21:21.033Z,15.79
2019-03-15T13:22:32.090Z,15.71
2019-03-15T13:23:43.537Z,15.71
2019-03-15T13:24:55.002Z,15.71
2019-03-15T13:26:05.985Z,15.81
2019-03-15T13:27:16.955Z,15.82
2019-03-15T13:28:28.400Z,15.83
2019-03-15T13:29:39.367Z,15.91
2019-03-15T13:30:50.823Z,16.14
2019-03-15T13:32:03.280Z,16.37
2019-03-15T13:33:20.239Z,16.57
2019-03-15T13:34:25.710Z,16.59
2019-03-15T13:35:37.170Z,16.65
2019-03-15T13:36:48.632Z,16.82
2019-03-15T13:38:00.125Z,16.98
2019-03-15T13:39:11.594Z,17.18
2019-03-15T13:40:22.574Z,17.23
2019-03-15T13:41:34.065Z,17.26
2019-03-15T13:42:45.556Z,17.32
2019-03-15T13:43:58.038Z,17.38
2019-03-15T13:45:09.034Z,17.41
2019-03-15T13:46:20.526Z,17.42
2019-03-15T13:47:32.019Z,17.38
2019-03-15T13:48:43.502Z,17.37
2019-03-15T13:49:54.986Z,17.27
2019-03-15T13:51:06.485Z,17.18
2019-03-15T13:52:17.980Z,16.96
2019-03-15T13:53:29.470Z,16.70
2019-03-15T13:54:40.963Z,16.44
2019-03-15T13:55:52.482Z,16.26
2019-03-15T13:57:03.663Z,16.19
2019-03-15T13:58:14.660Z,16.25
2019-03-15T13:59:26.151Z,16.51
2019-03-15T14:00:37.645Z,16.83
2019-03-15T14:01:48.648Z,17.11
2019-03-15T14:03:00.168Z,17.23
2019-03-15T14:04:11.663Z,17.40
2019-03-15T14:05:23.162Z,17.88
2019-03-15T14:06:34.171Z,18.22
2019-03-15T14:07:45.177Z,18.31
2019-03-15T14:08:56.684Z,18.29
2019-03-15T14:10:07.696Z,18.24
2019-03-15T14:11:18.710Z,18.23
2019-03-15T14:12:29.729Z,18.41
2019-03-15T14:13:40.751Z,18.70
2019-03-15T14:14:52.266Z,18.77
2019-03-15T14:16:03.797Z,18.66
2019-03-15T14:17:15.324Z,18.47
2019-03-15T14:18:26.881Z,18.53
2019-03-15T14:19:38.393Z,18.66
2019-03-15T14:20:49.422Z,18.62
2019-03-15T14:22:00.940Z,18.51
2019-03-15T14:23:11.985Z,18.48
2019-03-15T14:24:23.081Z,18.53
2019-03-15T14:25:34.049Z,18.52
2019-03-15T14:26:45.575Z,18.60
2019-03-15T14:27:57.101Z,18.53
2019-03-15T14:29:08.635Z,18.27
2019-03-15T14:30:19.665Z,17.95
2019-03-15T14:31:30.696Z,17.67
2019-03-15T14:32:42.225Z,17.45
2019-03-15T14:33:53.242Z,17.23
2019-03-15T14:35:04.272Z,16.96
2019-03-15T14:36:15.780Z,16.75
2019-03-15T14:37:27.373Z,16.54
2019-03-15T14:38:38.974Z,16.41
2019-03-15T14:39:50.404Z,16.28
2019-03-15T14:41:01.802Z,16.13
2019-03-15T14:42:13.402Z,15.96
2019-03-15T14:43:24.321Z,15.84
2019-03-15T14:44:35.371Z,15.80
2019-03-15T14:45:46.899Z,15.73
2019-03-15T14:46:58.251Z,15.69
2019-03-15T14:48:09.233Z,15.64
2019-03-15T14:49:20.706Z,15.70
2019-03-15T14:50:32.186Z,15.73
2019-03-15T14:51:43.655Z,15.86
2019-03-15T14:52:54.630Z,16.15
2019-03-15T14:54:06.107Z,16.53
2019-03-15T14:55:17.613Z,16.76
2019-03-15T14:56:28.600Z,16.94
2019-03-15T14:57:51.343Z,17.12
2019-03-15T14:58:50.586Z,17.46
2019-03-15T15:00:02.074Z,17.64
2019-03-15T15:01:13.563Z,17.65
2019-03-15T15:02:25.058Z,17.62
2019-03-15T15:03:36.049Z,17.62
2019-03-15T15:04:47.062Z,17.57
2019-03-15T15:05:58.069Z,17.50
2019-03-15T15:07:09.065Z,17.32
2019-03-15T15:08:20.621Z,17.08
2019-03-15T15:09:31.622Z,16.70
2019-03-15T15:10:43.114Z,16.38
2019-03-15T15:11:54.621Z,16.15
2019-03-15T15:13:05.646Z,15.92
2019-03-15T15:14:16.598Z,15.73
2019-03-15T15:15:28.069Z,15.58
2019-03-15T15:16:39.047Z,15.47
2019-03-15T15:17:50.669Z,15.29
2019-03-15T15:19:02.139Z,15.03
2019-03-15T15:20:13.114Z,14.76
2019-03-15T15:21:24.623Z,14.50
2019-03-15T15:22:36.075Z,14.30
2019-03-15T15:23:47.038Z,14.21
2019-03-15T15:24:58.632Z,14.20
2019-03-15T15:26:10.082Z,14.24
2019-03-15T15:27:22.035Z,14.29
2019-03-15T15:28:33.471Z,14.35
2019-03-15T15:29:44.931Z,14.39
2019-03-15T15:30:55.889Z,14.44
2019-03-15T15:32:07.333Z,14.51
2019-03-15T15:33:18.272Z,14.55
2019-03-15T15:34:29.223Z,14.59
2019-03-15T15:35:41.692Z,14.65
2019-03-15T15:36:51.608Z,14.68